Rubikon 4 — PD2321 — position and weather

sailwx.info

Track history (hours):
 
Tides and Currents Weather Stations Pressure Air Temp Water Temp Dewpoint Dewpoint Depression Visibility Wind Speed Wind Dir Waves Ship Positions

Rubikon 4

Last reported at 2018-Jul-17 16:30 UTC. Time now 2018-Jul-17 16:49 UTC.
Position N 47°50' E 017°36'.

Length 86 m; draft 1.7 m.

Type: Tanker. MMSI: 244660318.

Date/timePositionNaut miles runAvg speedWind from/ knotsBaromVisibWave heightAir tempDewpointWater temp
2018-Jul-17 16:30N 47°50' E 017°36'4 8.4
2018-Jul-17 15:59N 47°53' E 017°32'0 0.0
2018-Jul-17 15:30N 47°53' E 017°32'3 5.3
2018-Jul-17 15:00N 47°55' E 017°30'4 8.5
2018-Jul-17 14:30N 47°58' E 017°25'4 8.1
2018-Jul-17 14:00N 48°00' E 017°20'4 7.8
2018-Jul-17 13:30N 48°02' E 017°15'4 8.7
2018-Jul-17 13:00N 48°04' E 017°10'4 8.4
2018-Jul-17 12:30N 48°08' E 017°07'510.2
2018-Jul-17 12:00N 48°10' E 016°60'5 9.2
2018-Jul-17 11:30N 48°08' E 016°53'16 0.8
2018-Jul-16 15:03N 48°10' E 016°29'0 0.9
2018-Jul-16 14:42N 48°11' E 016°29'0 2.1
2018-Jul-16 14:29N 48°11' E 016°28'0 1.0
2018-Jul-16 14:00N 48°11' E 016°28'1 0.0
2018-Jul-15 23:40N 48°11' E 016°28'0 1.5
2018-Jul-15 23:27N 48°11' E 016°29'11 2.5
2018-Jul-15 19:14N 48°08' E 016°44'1 3.4
2018-Jul-15 18:57N 48°08' E 016°45'3 3.0
2018-Jul-15 17:48N 48°07' E 016°51'2 3.7
2018-Jul-15 17:19N 48°08' E 016°53'1 3.1
2018-Jul-15 17:00N 48°09' E 016°54'2 3.1
2018-Jul-15 16:30N 48°09' E 016°56'2 3.3
2018-Jul-15 16:00N 48°10' E 016°58'2 3.2
2018-Jul-15 15:29N 48°10' E 016°60'1 2.7
2018-Jul-15 15:00N 48°09' E 017°01'2 3.5
2018-Jul-15 14:30N 48°09' E 017°04'2 4.4
2018-Jul-15 14:00N 48°08' E 017°07'1 2.6
2018-Jul-15 13:30N 48°08' E 017°09'0 0.0
2018-Jul-15 13:00N 48°08' E 017°09'0 0.0
2018-Jul-15 12:30N 48°08' E 017°09'0 0.0
2018-Jul-15 12:00N 48°08' E 017°09'0 0.0
2018-Jul-15 11:30N 48°08' E 017°09'0 0.0
2018-Jul-15 10:59N 48°08' E 017°09'0 0.0
2018-Jul-15 10:30N 48°08' E 017°09'0 0.0
2018-Jul-15 10:00N 48°08' E 017°09'0 0.0
2018-Jul-15 09:30N 48°08' E 017°09'0 0.0
2018-Jul-15 09:00N 48°08' E 017°09'0 0.0
2018-Jul-15 08:30N 48°08' E 017°09'0 0.0
2018-Jul-15 07:59N 48°08' E 017°09'0 0.0
2018-Jul-15 07:30N 48°08' E 017°09'0 0.0
2018-Jul-15 07:00N 48°08' E 017°09'0 0.0
2018-Jul-15 06:29N 48°08' E 017°09'0 0.0
2018-Jul-15 06:00N 48°08' E 017°09'0 0.0
2018-Jul-15 05:30N 48°08' E 017°09'0 0.1
2018-Jul-15 05:00N 48°08' E 017°09'0 0.5
2018-Jul-15 04:30N 48°08' E 017°09'2 4.7
2018-Jul-15 04:00N 48°05' E 017°09'3 5.8
2018-Jul-15 03:30N 48°03' E 017°12'3 6.3
2018-Jul-15 03:00N 48°01' E 017°16'3 6.6
2018-Jul-15 02:30N 47°60' E 017°20'3 6.8
2018-Jul-15 02:00N 47°58' E 017°24'3 6.9
2018-Jul-15 01:30N 47°56' E 017°28'4 7.0
2018-Jul-15 01:00N 47°53' E 017°32'1 1.1
2018-Jul-15 00:30N 47°53' E 017°32'3 6.2
2018-Jul-15 00:00N 47°50' E 017°35'3 5.8
2018-Jul-14 23:30N 47°48' E 017°38'2 4.8
2018-Jul-14 23:00N 47°47' E 017°41'2 0.0
2018-Jul-13 10:29N 47°45' E 017°43'510.4
2018-Jul-13 10:01N 47°49' E 017°37'4 8.6
2018-Jul-13 09:31N 47°52' E 017°33'1 1.9
2018-Jul-13 09:00N 47°53' E 017°32'0 0.1
2018-Jul-13 08:30N 47°53' E 017°32'2 3.2
2018-Jul-13 07:59N 47°54' E 017°31'4 9.1
2018-Jul-13 07:30N 47°57' E 017°26'4 8.4
2018-Jul-13 07:01N 47°60' E 017°21'4 7.6
2018-Jul-13 06:31N 48°01' E 017°16'4 8.6
2018-Jul-13 06:01N 48°04' E 017°10'4 8.3
2018-Jul-13 05:31N 48°08' E 017°09'5 9.6
2018-Jul-13 05:00N 48°08' E 017°02'4 7.8
2018-Jul-13 04:30N 48°09' E 016°56'16 1.3
2018-Jul-12 16:03N 48°10' E 016°31'2 3.1
2018-Jul-12 15:33N 48°10' E 016°29'0 1.2
2018-Jul-12 15:15N 48°11' E 016°29'0 0.8
2018-Jul-12 15:00N 48°11' E 016°28'1 1.6
2018-Jul-12 14:30N 48°11' E 016°28'3 0.1
2018-Jul-11 17:25N 48°13' E 016°25'3 6.7
2018-Jul-11 16:56N 48°11' E 016°28'15 2.4
2018-Jul-11 10:42N 48°07' E 016°50'2 3.2
2018-Jul-11 10:07N 48°08' E 016°53'0 3.1
2018-Jul-11 10:00N 48°08' E 016°53'1 2.8
2018-Jul-11 09:30N 48°09' E 016°55'1 2.8
2018-Jul-11 09:00N 48°10' E 016°57'1 2.5
2018-Jul-11 08:28N 48°10' E 016°59'2 3.3
2018-Jul-11 08:00N 48°09' E 017°00'2 3.2
2018-Jul-11 07:30N 48°08' E 017°02'2 3.5
2018-Jul-11 07:00N 48°08' E 017°05'2 4.4
2018-Jul-11 06:30N 48°08' E 017°08'1 1.3
2018-Jul-11 06:00N 48°08' E 017°09'0 0.0
2018-Jul-11 05:30N 48°08' E 017°09'0 0.0
2018-Jul-11 05:00N 48°08' E 017°09'0 0.0
2018-Jul-11 04:30N 48°08' E 017°09'0 0.0
2018-Jul-11 04:00N 48°08' E 017°09'0 0.0
2018-Jul-11 03:30N 48°08' E 017°09'0 0.0
2018-Jul-11 03:00N 48°08' E 017°09'0 0.0
2018-Jul-11 02:30N 48°08' E 017°09'0 0.0
2018-Jul-11 02:00N 48°08' E 017°09'0 0.0
2018-Jul-11 01:30N 48°08' E 017°09'0 0.0
2018-Jul-11 01:00N 48°08' E 017°09'0 0.0
2018-Jul-11 00:30N 48°08' E 017°09'0 0.0
2018-Jul-11 00:00N 48°08' E 017°09'0 0.0
2018-Jul-10 23:30N 48°08' E 017°09'0 0.0
2018-Jul-10 23:00N 48°08' E 017°09'0 0.0
2018-Jul-10 22:30N 48°08' E 017°09'0 0.0
2018-Jul-10 22:00N 48°08' E 017°09'0 0.0
2018-Jul-10 21:30N 48°08' E 017°09'0 0.0
2018-Jul-10 21:00N 48°08' E 017°09'0 0.0
2018-Jul-10 20:30N 48°08' E 017°09'0 0.0
2018-Jul-10 19:59N 48°08' E 017°09'0 0.0
2018-Jul-10 19:30N 48°08' E 017°09'0 0.0
2018-Jul-10 19:00N 48°08' E 017°09'0 0.0
2018-Jul-10 18:30N 48°08' E 017°09'0 0.0
2018-Jul-10 18:00N 48°08' E 017°09'0 0.0
2018-Jul-10 17:30N 48°08' E 017°09'0 0.0
2018-Jul-10 17:00N 48°08' E 017°09'0 0.0
2018-Jul-10 16:30N 48°08' E 017°09'0 0.0
2018-Jul-10 16:00N 48°08' E 017°09'0 0.0
2018-Jul-10 15:30N 48°08' E 017°09'0 0.0
2018-Jul-10 15:00N 48°08' E 017°09'0 0.0
2018-Jul-10 14:30N 48°08' E 017°09'0 0.0
2018-Jul-10 14:00N 48°08' E 017°09'0 0.0
2018-Jul-10 13:30N 48°08' E 017°09'0 0.0
2018-Jul-10 13:00N 48°08' E 017°09'0 0.0
2018-Jul-10 12:30N 48°08' E 017°09'0 0.3
2018-Jul-10 12:00N 48°08' E 017°09'510.3
2018-Jul-10 11:30N 48°09' E 017°01'5 9.3
2018-Jul-10 11:00N 48°09' E 016°54'17 1.1
2018-Jul-09 20:11N 48°10' E 016°29'0 0.8
2018-Jul-09 19:48N 48°11' E 016°29'0 1.3
2018-Jul-09 19:30N 48°11' E 016°28'3 0.1
2018-Jul-08 19:27N 48°13' E 016°25'3 5.8
2018-Jul-08 18:59N 48°11' E 016°28'14 2.5
2018-Jul-08 13:18N 48°07' E 016°48'1 2.7
2018-Jul-08 12:50N 48°07' E 016°50'2 2.7
2018-Jul-08 12:15N 48°08' E 016°52'1 2.6
2018-Jul-08 12:00N 48°08' E 016°53'1 2.7
2018-Jul-08 11:31N 48°09' E 016°55'1 2.5
2018-Jul-08 11:00N 48°09' E 016°57'1 2.7
2018-Jul-08 10:30N 48°10' E 016°58'1 2.6
2018-Jul-08 10:00N 48°10' E 016°60'1 2.9
2018-Jul-08 09:31N 48°09' E 017°01'1 2.6
2018-Jul-08 09:00N 48°09' E 017°03'2 3.1
2018-Jul-08 08:30N 48°08' E 017°05'2 3.4
2018-Jul-08 08:00N 48°08' E 017°08'1 1.7
2018-Jul-08 07:30N 48°08' E 017°09'0 0.0
2018-Jul-08 07:00N 48°08' E 017°09'0 0.0
2018-Jul-08 06:31N 48°08' E 017°09'0 0.0
2018-Jul-08 06:01N 48°08' E 017°09'0 0.0
2018-Jul-08 05:31N 48°08' E 017°09'0 0.0
2018-Jul-08 05:00N 48°08' E 017°09'0 0.0
2018-Jul-08 04:31N 48°08' E 017°09'0 0.0
2018-Jul-08 04:01N 48°08' E 017°09'0 0.0
2018-Jul-08 03:31N 48°08' E 017°09'0 0.0
2018-Jul-08 03:01N 48°08' E 017°09'0 0.0
2018-Jul-08 02:30N 48°08' E 017°09'0 0.0
2018-Jul-08 02:00N 48°08' E 017°09'0 0.0
2018-Jul-08 01:30N 48°08' E 017°09'0 0.0
2018-Jul-08 01:01N 48°08' E 017°09'0 0.0
2018-Jul-08 00:30N 48°08' E 017°09'0 0.0
2018-Jul-08 00:01N 48°08' E 017°09'0 0.0
2018-Jul-07 23:31N 48°08' E 017°09'0 0.0
2018-Jul-07 23:00N 48°08' E 017°09'0 0.0
2018-Jul-07 22:31N 48°08' E 017°09'0 0.0
2018-Jul-07 22:01N 48°08' E 017°09'0 0.0
2018-Jul-07 21:31N 48°08' E 017°09'0 0.0
2018-Jul-07 21:01N 48°08' E 017°09'0 0.0
2018-Jul-07 20:30N 48°08' E 017°09'0 0.0
2018-Jul-07 20:00N 48°08' E 017°09'0 0.0
2018-Jul-07 19:31N 48°08' E 017°09'0 0.0
2018-Jul-07 19:01N 48°08' E 017°09'0 0.2
2018-Jul-07 18:31N 48°08' E 017°09'2 4.6
2018-Jul-07 18:00N 48°06' E 017°09'3 5.8
2018-Jul-07 17:31N 48°03' E 017°11'3 6.5
2018-Jul-07 17:00N 48°01' E 017°15'  
Track history (hours):
 
Tides and Currents Weather Stations Pressure Air Temp Water Temp Dewpoint Dewpoint Depression Visibility Wind Speed Wind Dir Waves Ship Positions

Rubikon 4

Last reported at 2018-Jul-17 16:30 UTC. Time now 2018-Jul-17 16:49 UTC.
Position N 47°50' E 017°36'.

Length 86 m; draft 1.7 m.

Type: Tanker. MMSI: 244660318.

Date/timePositionNaut miles runAvg speedWind from/ knotsBaromVisibWave heightAir tempDewpointWater temp
2018-Jul-17 16:30N 47°50' E 017°36'4 8.4
2018-Jul-17 15:59N 47°53' E 017°32'0 0.0
2018-Jul-17 15:30N 47°53' E 017°32'3 5.3
2018-Jul-17 15:00N 47°55' E 017°30'4 8.5
2018-Jul-17 14:30N 47°58' E 017°25'4 8.1
2018-Jul-17 14:00N 48°00' E 017°20'4 7.8
2018-Jul-17 13:30N 48°02' E 017°15'4 8.7
2018-Jul-17 13:00N 48°04' E 017°10'4 8.4
2018-Jul-17 12:30N 48°08' E 017°07'510.2
2018-Jul-17 12:00N 48°10' E 016°60'5 9.2
2018-Jul-17 11:30N 48°08' E 016°53'16 0.8
2018-Jul-16 15:03N 48°10' E 016°29'0 0.9
2018-Jul-16 14:42N 48°11' E 016°29'0 2.1
2018-Jul-16 14:29N 48°11' E 016°28'0 1.0
2018-Jul-16 14:00N 48°11' E 016°28'1 0.0
2018-Jul-15 23:40N 48°11' E 016°28'0 1.5
2018-Jul-15 23:27N 48°11' E 016°29'11 2.5
2018-Jul-15 19:14N 48°08' E 016°44'1 3.4
2018-Jul-15 18:57N 48°08' E 016°45'3 3.0
2018-Jul-15 17:48N 48°07' E 016°51'2 3.7
2018-Jul-15 17:19N 48°08' E 016°53'1 3.1
2018-Jul-15 17:00N 48°09' E 016°54'2 3.1
2018-Jul-15 16:30N 48°09' E 016°56'2 3.3
2018-Jul-15 16:00N 48°10' E 016°58'2 3.2
2018-Jul-15 15:29N 48°10' E 016°60'1 2.7
2018-Jul-15 15:00N 48°09' E 017°01'2 3.5
2018-Jul-15 14:30N 48°09' E 017°04'2 4.4
2018-Jul-15 14:00N 48°08' E 017°07'1 2.6
2018-Jul-15 13:30N 48°08' E 017°09'0 0.0
2018-Jul-15 13:00N 48°08' E 017°09'0 0.0
2018-Jul-15 12:30N 48°08' E 017°09'0 0.0
2018-Jul-15 12:00N 48°08' E 017°09'0 0.0
2018-Jul-15 11:30N 48°08' E 017°09'0 0.0
2018-Jul-15 10:59N 48°08' E 017°09'0 0.0
2018-Jul-15 10:30N 48°08' E 017°09'0 0.0
2018-Jul-15 10:00N 48°08' E 017°09'0 0.0
2018-Jul-15 09:30N 48°08' E 017°09'0 0.0
2018-Jul-15 09:00N 48°08' E 017°09'0 0.0
2018-Jul-15 08:30N 48°08' E 017°09'0 0.0
2018-Jul-15 07:59N 48°08' E 017°09'0 0.0
2018-Jul-15 07:30N 48°08' E 017°09'0 0.0
2018-Jul-15 07:00N 48°08' E 017°09'0 0.0
2018-Jul-15 06:29N 48°08' E 017°09'0 0.0
2018-Jul-15 06:00N 48°08' E 017°09'0 0.0
2018-Jul-15 05:30N 48°08' E 017°09'0 0.1
2018-Jul-15 05:00N 48°08' E 017°09'0 0.5
2018-Jul-15 04:30N 48°08' E 017°09'2 4.7
2018-Jul-15 04:00N 48°05' E 017°09'3 5.8
2018-Jul-15 03:30N 48°03' E 017°12'3 6.3
2018-Jul-15 03:00N 48°01' E 017°16'3 6.6
2018-Jul-15 02:30N 47°60' E 017°20'3 6.8
2018-Jul-15 02:00N 47°58' E 017°24'3 6.9
2018-Jul-15 01:30N 47°56' E 017°28'4 7.0
2018-Jul-15 01:00N 47°53' E 017°32'1 1.1
2018-Jul-15 00:30N 47°53' E 017°32'3 6.2
2018-Jul-15 00:00N 47°50' E 017°35'3 5.8
2018-Jul-14 23:30N 47°48' E 017°38'2 4.8
2018-Jul-14 23:00N 47°47' E 017°41'2 0.0
2018-Jul-13 10:29N 47°45' E 017°43'510.4
2018-Jul-13 10:01N 47°49' E 017°37'4 8.6
2018-Jul-13 09:31N 47°52' E 017°33'1 1.9
2018-Jul-13 09:00N 47°53' E 017°32'0 0.1
2018-Jul-13 08:30N 47°53' E 017°32'2 3.2
2018-Jul-13 07:59N 47°54' E 017°31'4 9.1
2018-Jul-13 07:30N 47°57' E 017°26'4 8.4
2018-Jul-13 07:01N 47°60' E 017°21'4 7.6
2018-Jul-13 06:31N 48°01' E 017°16'4 8.6
2018-Jul-13 06:01N 48°04' E 017°10'4 8.3
2018-Jul-13 05:31N 48°08' E 017°09'5 9.6
2018-Jul-13 05:00N 48°08' E 017°02'4 7.8
2018-Jul-13 04:30N 48°09' E 016°56'16 1.3
2018-Jul-12 16:03N 48°10' E 016°31'2 3.1
2018-Jul-12 15:33N 48°10' E 016°29'0 1.2
2018-Jul-12 15:15N 48°11' E 016°29'0 0.8
2018-Jul-12 15:00N 48°11' E 016°28'1 1.6
2018-Jul-12 14:30N 48°11' E 016°28'3 0.1
2018-Jul-11 17:25N 48°13' E 016°25'3 6.7
2018-Jul-11 16:56N 48°11' E 016°28'15 2.4
2018-Jul-11 10:42N 48°07' E 016°50'2 3.2
2018-Jul-11 10:07N 48°08' E 016°53'0 3.1
2018-Jul-11 10:00N 48°08' E 016°53'1 2.8
2018-Jul-11 09:30N 48°09' E 016°55'1 2.8
2018-Jul-11 09:00N 48°10' E 016°57'1 2.5
2018-Jul-11 08:28N 48°10' E 016°59'2 3.3
2018-Jul-11 08:00N 48°09' E 017°00'2 3.2
2018-Jul-11 07:30N 48°08' E 017°02'2 3.5
2018-Jul-11 07:00N 48°08' E 017°05'2 4.4
2018-Jul-11 06:30N 48°08' E 017°08'1 1.3
2018-Jul-11 06:00N 48°08' E 017°09'0 0.0
2018-Jul-11 05:30N 48°08' E 017°09'0 0.0
2018-Jul-11 05:00N 48°08' E 017°09'0 0.0
2018-Jul-11 04:30N 48°08' E 017°09'0 0.0
2018-Jul-11 04:00N 48°08' E 017°09'0 0.0
2018-Jul-11 03:30N 48°08' E 017°09'0 0.0
2018-Jul-11 03:00N 48°08' E 017°09'0 0.0
2018-Jul-11 02:30N 48°08' E 017°09'0 0.0
2018-Jul-11 02:00N 48°08' E 017°09'0 0.0
2018-Jul-11 01:30N 48°08' E 017°09'0 0.0
2018-Jul-11 01:00N 48°08' E 017°09'0 0.0
2018-Jul-11 00:30N 48°08' E 017°09'0 0.0
2018-Jul-11 00:00N 48°08' E 017°09'0 0.0
2018-Jul-10 23:30N 48°08' E 017°09'0 0.0
2018-Jul-10 23:00N 48°08' E 017°09'0 0.0
2018-Jul-10 22:30N 48°08' E 017°09'0 0.0
2018-Jul-10 22:00N 48°08' E 017°09'0 0.0
2018-Jul-10 21:30N 48°08' E 017°09'0 0.0
2018-Jul-10 21:00N 48°08' E 017°09'0 0.0
2018-Jul-10 20:30N 48°08' E 017°09'0 0.0
2018-Jul-10 19:59N 48°08' E 017°09'0 0.0
2018-Jul-10 19:30N 48°08' E 017°09'0 0.0
2018-Jul-10 19:00N 48°08' E 017°09'0 0.0
2018-Jul-10 18:30N 48°08' E 017°09'0 0.0
2018-Jul-10 18:00N 48°08' E 017°09'0 0.0
2018-Jul-10 17:30N 48°08' E 017°09'0 0.0
2018-Jul-10 17:00N 48°08' E 017°09'0 0.0
2018-Jul-10 16:30N 48°08' E 017°09'0 0.0
2018-Jul-10 16:00N 48°08' E 017°09'0 0.0
2018-Jul-10 15:30N 48°08' E 017°09'0 0.0
2018-Jul-10 15:00N 48°08' E 017°09'0 0.0
2018-Jul-10 14:30N 48°08' E 017°09'0 0.0
2018-Jul-10 14:00N 48°08' E 017°09'0 0.0
2018-Jul-10 13:30N 48°08' E 017°09'0 0.0
2018-Jul-10 13:00N 48°08' E 017°09'0 0.0
2018-Jul-10 12:30N 48°08' E 017°09'0 0.3
2018-Jul-10 12:00N 48°08' E 017°09'510.3
2018-Jul-10 11:30N 48°09' E 017°01'5 9.3
2018-Jul-10 11:00N 48°09' E 016°54'17 1.1
2018-Jul-09 20:11N 48°10' E 016°29'0 0.8
2018-Jul-09 19:48N 48°11' E 016°29'0 1.3
2018-Jul-09 19:30N 48°11' E 016°28'3 0.1
2018-Jul-08 19:27N 48°13' E 016°25'3 5.8
2018-Jul-08 18:59N 48°11' E 016°28'14 2.5
2018-Jul-08 13:18N 48°07' E 016°48'1 2.7
2018-Jul-08 12:50N 48°07' E 016°50'2 2.7
2018-Jul-08 12:15N 48°08' E 016°52'1 2.6
2018-Jul-08 12:00N 48°08' E 016°53'1 2.7
2018-Jul-08 11:31N 48°09' E 016°55'1 2.5
2018-Jul-08 11:00N 48°09' E 016°57'1 2.7
2018-Jul-08 10:30N 48°10' E 016°58'1 2.6
2018-Jul-08 10:00N 48°10' E 016°60'1 2.9
2018-Jul-08 09:31N 48°09' E 017°01'1 2.6
2018-Jul-08 09:00N 48°09' E 017°03'2 3.1
2018-Jul-08 08:30N 48°08' E 017°05'2 3.4
2018-Jul-08 08:00N 48°08' E 017°08'1 1.7
2018-Jul-08 07:30N 48°08' E 017°09'0 0.0
2018-Jul-08 07:00N 48°08' E 017°09'0 0.0
2018-Jul-08 06:31N 48°08' E 017°09'0 0.0
2018-Jul-08 06:01N 48°08' E 017°09'0 0.0
2018-Jul-08 05:31N 48°08' E 017°09'0 0.0
2018-Jul-08 05:00N 48°08' E 017°09'0 0.0
2018-Jul-08 04:31N 48°08' E 017°09'0 0.0
2018-Jul-08 04:01N 48°08' E 017°09'0 0.0
2018-Jul-08 03:31N 48°08' E 017°09'0 0.0
2018-Jul-08 03:01N 48°08' E 017°09'0 0.0
2018-Jul-08 02:30N 48°08' E 017°09'0 0.0
2018-Jul-08 02:00N 48°08' E 017°09'0 0.0
2018-Jul-08 01:30N 48°08' E 017°09'0 0.0
2018-Jul-08 01:01N 48°08' E 017°09'0 0.0
2018-Jul-08 00:30N 48°08' E 017°09'0 0.0
2018-Jul-08 00:01N 48°08' E 017°09'0 0.0
2018-Jul-07 23:31N 48°08' E 017°09'0 0.0
2018-Jul-07 23:00N 48°08' E 017°09'0 0.0
2018-Jul-07 22:31N 48°08' E 017°09'0 0.0
2018-Jul-07 22:01N 48°08' E 017°09'0 0.0
2018-Jul-07 21:31N 48°08' E 017°09'0 0.0
2018-Jul-07 21:01N 48°08' E 017°09'0 0.0
2018-Jul-07 20:30N 48°08' E 017°09'0 0.0
2018-Jul-07 20:00N 48°08' E 017°09'0 0.0
2018-Jul-07 19:31N 48°08' E 017°09'0 0.0
2018-Jul-07 19:01N 48°08' E 017°09'0 0.2
2018-Jul-07 18:31N 48°08' E 017°09'2 4.6
2018-Jul-07 18:00N 48°06' E 017°09'3 5.8
2018-Jul-07 17:31N 48°03' E 017°11'3 6.5
2018-Jul-07 17:00N 48°01' E 017°15'  

Dump ship's entire track history